Genius — 2CPA7 — position and weather

sailwx.info

Track history (hours):
 
Tides and Currents Weather Stations Pressure Air Temp Water Temp Dewpoint Dewpoint Depression Visibility Wind Speed Wind Dir Waves Ship Positions

Genius

Last reported at 2015-Jul-01 12:07 UTC. Time now 2015-Jul-01 12:44 UTC.
Position N 40°10' E 121°37'.

Length 288 m; draft 11 m.

Type: Cargo ship. MMSI: 235074615.

Date/timePositionNaut miles runAvg speedWind from/ knotsBaromVisibWave heightAir tempDewpointWater temp
2015-Jul-01 12:07N 40°10' E 121°37'104 2.3
2015-Jun-29 15:33N 38°26' E 121°23'1211.9
2015-Jun-29 14:33N 38°22' E 121°37'198 6.8
2015-Jun-28 09:32N 35°21' E 119°59'1312.8
2015-Jun-28 08:33N 35°31' E 119°50'4 3.8
2015-Jun-28 07:23N 35°35' E 119°47'0 0.0
2015-Jun-28 06:17N 35°35' E 119°47'0 0.0
2015-Jun-28 04:17N 35°35' E 119°47'0 0.0
2015-Jun-28 03:29N 35°35' E 119°47'0 0.0
2015-Jun-28 02:17N 35°35' E 119°47'0 0.0
2015-Jun-28 01:29N 35°35' E 119°47'0 0.0
2015-Jun-28 00:11N 35°35' E 119°47'0 0.0
2015-Jun-27 21:23N 35°35' E 119°47'0 0.0
2015-Jun-27 20:23N 35°35' E 119°47'0 0.0
2015-Jun-27 15:29N 35°35' E 119°48'0 0.0
2015-Jun-27 14:11N 35°35' E 119°47'0 0.0
2015-Jun-27 11:23N 35°35' E 119°47'0 0.0
2015-Jun-27 09:26N 35°35' E 119°47'1 1.0
2015-Jun-27 08:33N 35°34' E 119°48'8 8.2
2015-Jun-27 07:33N 35°27' E 119°53'1111.3
2015-Jun-27 06:32N 35°18' E 120°02'  
Track history (hours):
 
Tides and Currents Weather Stations Pressure Air Temp Water Temp Dewpoint Dewpoint Depression Visibility Wind Speed Wind Dir Waves Ship Positions

Genius

Last reported at 2015-Jul-01 12:07 UTC. Time now 2015-Jul-01 12:44 UTC.
Position N 40°10' E 121°37'.

Length 288 m; draft 11 m.

Type: Cargo ship. MMSI: 235074615.

Date/timePositionNaut miles runAvg speedWind from/ knotsBaromVisibWave heightAir tempDewpointWater temp
2015-Jul-01 12:07N 40°10' E 121°37'104 2.3
2015-Jun-29 15:33N 38°26' E 121°23'1211.9
2015-Jun-29 14:33N 38°22' E 121°37'198 6.8
2015-Jun-28 09:32N 35°21' E 119°59'1312.8
2015-Jun-28 08:33N 35°31' E 119°50'4 3.8
2015-Jun-28 07:23N 35°35' E 119°47'0 0.0
2015-Jun-28 06:17N 35°35' E 119°47'0 0.0
2015-Jun-28 04:17N 35°35' E 119°47'0 0.0
2015-Jun-28 03:29N 35°35' E 119°47'0 0.0
2015-Jun-28 02:17N 35°35' E 119°47'0 0.0
2015-Jun-28 01:29N 35°35' E 119°47'0 0.0
2015-Jun-28 00:11N 35°35' E 119°47'0 0.0
2015-Jun-27 21:23N 35°35' E 119°47'0 0.0
2015-Jun-27 20:23N 35°35' E 119°47'0 0.0
2015-Jun-27 15:29N 35°35' E 119°48'0 0.0
2015-Jun-27 14:11N 35°35' E 119°47'0 0.0
2015-Jun-27 11:23N 35°35' E 119°47'0 0.0
2015-Jun-27 09:26N 35°35' E 119°47'1 1.0
2015-Jun-27 08:33N 35°34' E 119°48'8 8.2
2015-Jun-27 07:33N 35°27' E 119°53'1111.3
2015-Jun-27 06:32N 35°18' E 120°02'  

Dump ship's entire track history